createdAt,value
2018-02-11T00:00:10.771Z,82.60
2018-02-11T00:01:13.776Z,82.60
2018-02-11T00:02:06.241Z,82.60
2018-02-11T00:03:06.294Z,82.60
2018-02-11T00:04:05.919Z,82.60
2018-02-11T00:05:06.084Z,82.60
2018-02-11T00:06:05.838Z,82.60
2018-02-11T00:07:09.129Z,82.70
2018-02-11T00:08:05.730Z,82.70
2018-02-11T00:09:11.481Z,82.70
2018-02-11T00:10:06.098Z,82.70
2018-02-11T00:11:05.917Z,82.70
2018-02-11T00:12:05.679Z,82.70
2018-02-11T00:13:11.466Z,82.70
2018-02-11T00:14:05.993Z,82.70
2018-02-11T00:15:06.456Z,82.70
2018-02-11T00:16:06.362Z,82.70
2018-02-11T00:17:05.607Z,82.60
2018-02-11T00:18:05.724Z,82.70
2018-02-11T00:19:08.574Z,82.70
2018-02-11T00:20:06.119Z,82.70
2018-02-11T00:21:10.775Z,82.70
2018-02-11T00:22:06.390Z,82.70
2018-02-11T00:23:06.220Z,82.70
2018-02-11T00:24:06.252Z,82.70
2018-02-11T00:25:06.869Z,82.70
2018-02-11T00:26:06.318Z,82.70
2018-02-11T00:27:05.876Z,82.70
2018-02-11T00:28:08.660Z,82.70
2018-02-11T00:29:06.188Z,82.70
2018-02-11T00:30:05.565Z,82.70
2018-02-11T00:31:06.096Z,82.70
2018-02-11T00:32:08.938Z,82.70
2018-02-11T00:33:06.421Z,82.70
2018-02-11T00:34:10.826Z,82.70
2018-02-11T00:35:06.097Z,82.70
2018-02-11T00:36:11.332Z,82.70
2018-02-11T00:37:08.311Z,82.80
2018-02-11T00:38:05.758Z,82.70
2018-02-11T00:39:05.973Z,82.70
2018-02-11T00:40:06.559Z,82.70
2018-02-11T00:41:06.129Z,82.70
2018-02-11T00:42:09.087Z,82.70
2018-02-11T00:43:05.486Z,82.80
2018-02-11T00:44:08.075Z,82.80
2018-02-11T00:45:10.465Z,82.80
2018-02-11T00:46:11.478Z,82.80
2018-02-11T00:47:06.240Z,82.90
2018-02-11T00:48:05.748Z,82.90
2018-02-11T00:49:06.020Z,82.90
2018-02-11T00:50:06.034Z,82.90
2018-02-11T00:51:05.744Z,82.90
2018-02-11T00:52:08.978Z,82.90
2018-02-11T00:53:06.515Z,82.90
2018-02-11T00:54:11.394Z,82.90
2018-02-11T00:55:05.574Z,83.00
2018-02-11T00:56:05.768Z,83.00
2018-02-11T00:57:05.858Z,83.00
2018-02-11T00:58:05.914Z,83.00
2018-02-11T00:59:10.547Z,83.10
2018-02-11T01:00:08.264Z,83.00
2018-02-11T01:01:08.204Z,83.10
2018-02-11T01:02:11.555Z,83.00
2018-02-11T01:03:06.004Z,83.00
2018-02-11T01:04:08.962Z,83.10
2018-02-11T01:05:06.637Z,83.10
2018-02-11T01:06:05.970Z,83.10
2018-02-11T01:07:06.376Z,83.10
2018-02-11T01:08:05.948Z,83.10
2018-02-11T01:09:05.722Z,83.10
2018-02-11T01:10:06.361Z,83.10
2018-02-11T01:11:06.122Z,83.10
2018-02-11T01:12:06.423Z,83.10
2018-02-11T01:13:08.332Z,83.40
2018-02-11T01:14:10.868Z,83.10
2018-02-11T01:15:06.601Z,82.90
2018-02-11T01:16:05.822Z,83.10
2018-02-11T01:17:06.059Z,83.00
2018-02-11T01:18:08.314Z,82.90
2018-02-11T01:19:08.374Z,83.00
2018-02-11T01:20:08.356Z,82.90
2018-02-11T01:21:05.990Z,82.80
2018-02-11T01:22:08.676Z,82.70
2018-02-11T01:23:06.409Z,82.70
2018-02-11T01:24:06.198Z,82.70
2018-02-11T01:25:05.803Z,82.70
2018-02-11T01:26:06.073Z,82.70
2018-02-11T01:27:08.606Z,82.60
2018-02-11T01:28:11.045Z,82.60
2018-02-11T01:29:06.283Z,82.60
2018-02-11T01:30:11.150Z,82.60
2018-02-11T01:31:13.204Z,82.60
2018-02-11T01:32:05.615Z,82.60
2018-02-11T01:33:08.209Z,82.50
2018-02-11T01:34:05.690Z,82.50
2018-02-11T01:35:10.734Z,82.50
2018-02-11T01:36:06.598Z,82.40
2018-02-11T01:37:10.912Z,82.40
2018-02-11T01:38:09.754Z,82.40
2018-02-11T01:39:09.144Z,82.40
2018-02-11T01:40:08.224Z,82.30
2018-02-11T01:41:06.010Z,82.30
2018-02-11T01:42:09.992Z,82.30
2018-02-11T01:43:06.444Z,82.30
2018-02-11T01:44:05.941Z,82.30
2018-02-11T01:45:05.897Z,82.30
2018-02-11T01:46:13.729Z,82.30
2018-02-11T01:47:06.252Z,82.30
2018-02-11T01:48:05.976Z,82.20
2018-02-11T01:49:07.374Z,82.20
2018-02-11T01:50:08.083Z,82.20
2018-02-11T01:51:05.486Z,82.20
2018-02-11T01:52:08.184Z,82.20
2018-02-11T01:53:05.745Z,82.10
2018-02-11T01:54:05.835Z,82.20
2018-02-11T01:55:10.025Z,82.20
2018-02-11T01:56:05.724Z,82.20
2018-02-11T01:57:06.227Z,82.20
2018-02-11T01:58:08.324Z,82.10
2018-02-11T01:59:11.500Z,82.10
2018-02-11T02:00:05.942Z,82.10
2018-02-11T02:01:05.651Z,82.10
2018-02-11T02:02:05.732Z,82.10
2018-02-11T02:03:08.464Z,82.10
2018-02-11T02:04:10.860Z,82.20
2018-02-11T02:05:06.003Z,82.20
2018-02-11T02:06:06.322Z,82.10
2018-02-11T02:07:08.817Z,82.20
2018-02-11T02:08:06.252Z,82.20
2018-02-11T02:09:11.645Z,82.20
2018-02-11T02:10:08.545Z,82.20
2018-02-11T02:11:09.045Z,82.20
2018-02-11T02:12:05.570Z,82.20
2018-02-11T02:13:05.666Z,82.20
2018-02-11T02:14:06.003Z,82.20
2018-02-11T02:15:06.201Z,82.20
2018-02-11T02:16:10.885Z,82.20
2018-02-11T02:17:08.971Z,82.20
2018-02-11T02:18:11.511Z,82.20
2018-02-11T02:19:08.539Z,82.10
2018-02-11T02:20:08.602Z,82.10
2018-02-11T02:21:11.138Z,82.10
2018-02-11T02:22:10.655Z,82.10
2018-02-11T02:23:06.118Z,82.20
2018-02-11T02:24:06.336Z,82.20
2018-02-11T02:25:10.635Z,82.20
2018-02-11T02:26:08.367Z,82.20
2018-02-11T02:27:10.910Z,82.50
2018-02-11T02:28:11.398Z,82.40
2018-02-11T02:29:05.742Z,82.40
2018-02-11T02:30:06.300Z,82.40
2018-02-11T02:31:06.008Z,82.60
2018-02-11T02:32:08.397Z,82.70
2018-02-11T02:33:06.093Z,82.70
2018-02-11T02:34:05.827Z,82.90
2018-02-11T02:35:06.272Z,82.90
2018-02-11T02:36:06.496Z,83.00
2018-02-11T02:37:06.398Z,83.10
2018-02-11T02:38:05.679Z,83.30
2018-02-11T02:39:06.275Z,83.20
2018-02-11T02:40:08.161Z,83.50
2018-02-11T02:41:10.592Z,83.40
2018-02-11T02:42:06.391Z,83.40
2018-02-11T02:43:06.086Z,83.40
2018-02-11T02:44:11.054Z,83.40
2018-02-11T02:45:06.260Z,83.40
2018-02-11T02:46:11.036Z,83.30
2018-02-11T02:47:08.119Z,83.30
2018-02-11T02:48:10.597Z,83.30
2018-02-11T02:49:06.448Z,83.20
2018-02-11T02:50:10.752Z,83.20
2018-02-11T02:51:06.173Z,83.20
2018-02-11T02:52:05.867Z,83.20
2018-02-11T02:53:06.468Z,83.10
2018-02-11T02:54:09.114Z,83.10
2018-02-11T02:55:08.569Z,83.10
2018-02-11T02:56:11.117Z,83.10
2018-02-11T02:57:06.440Z,83.10
2018-02-11T02:58:08.478Z,83.20
2018-02-11T02:59:05.824Z,83.20
2018-02-11T03:00:05.972Z,83.30
2018-02-11T03:01:05.775Z,83.30
2018-02-11T03:02:06.263Z,83.30
2018-02-11T03:03:06.350Z,83.40
2018-02-11T03:04:06.095Z,83.40
2018-02-11T03:05:06.388Z,83.40
2018-02-11T03:06:08.415Z,83.40
2018-02-11T03:07:06.271Z,83.40
2018-02-11T03:08:09.201Z,83.20
2018-02-11T03:09:05.698Z,83.20
2018-02-11T03:10:06.901Z,83.30
2018-02-11T03:11:06.538Z,83.30
2018-02-11T03:12:06.151Z,83.30
2018-02-11T03:13:11.355Z,83.20
2018-02-11T03:14:05.527Z,83.20
2018-02-11T03:15:10.693Z,83.20
2018-02-11T03:16:08.629Z,83.10
2018-02-11T03:17:13.905Z,83.10
2018-02-11T03:18:08.820Z,83.10
2018-02-11T03:19:08.813Z,83.10
2018-02-11T03:20:06.270Z,83.10
2018-02-11T03:21:05.864Z,83.10
2018-02-11T03:22:05.764Z,83.10
2018-02-11T03:23:05.554Z,83.10
2018-02-11T03:24:05.781Z,83.10
2018-02-11T03:25:08.779Z,83.20
2018-02-11T03:26:06.448Z,83.20
2018-02-11T03:27:06.356Z,83.30
2018-02-11T03:28:06.590Z,83.30
2018-02-11T03:29:09.166Z,83.30
2018-02-11T03:30:09.304Z,83.40
2018-02-11T03:31:06.322Z,83.30
2018-02-11T03:32:08.813Z,83.50
2018-02-11T03:33:11.420Z,83.50
2018-02-11T03:34:13.401Z,83.60
2018-02-11T03:35:05.761Z,83.60
2018-02-11T03:36:06.019Z,83.70
2018-02-11T03:37:05.591Z,83.70
2018-02-11T03:38:06.015Z,83.80
2018-02-11T03:39:05.590Z,83.80
2018-02-11T03:40:06.184Z,83.80
2018-02-11T03:41:05.810Z,83.80
2018-02-11T03:42:08.151Z,83.80
2018-02-11T03:43:05.683Z,83.80
2018-02-11T03:44:08.673Z,83.80
2018-02-11T03:45:06.193Z,83.80
2018-02-11T03:46:05.774Z,83.80
2018-02-11T03:47:08.782Z,83.80
2018-02-11T03:48:06.217Z,83.90
2018-02-11T03:49:05.455Z,83.90
2018-02-11T03:50:06.260Z,83.90
2018-02-11T03:51:06.090Z,83.90
2018-02-11T03:52:11.389Z,83.90
2018-02-11T03:53:05.743Z,83.90
2018-02-11T03:54:05.832Z,83.90
2018-02-11T03:55:11.381Z,83.90
2018-02-11T03:56:06.026Z,83.90
2018-02-11T03:57:11.195Z,83.80
2018-02-11T03:58:05.689Z,83.90
2018-02-11T03:59:05.872Z,83.80
2018-02-11T04:00:06.032Z,83.80
2018-02-11T04:01:05.559Z,83.80
2018-02-11T04:02:05.622Z,83.80
2018-02-11T04:03:06.126Z,83.90
2018-02-11T04:04:05.847Z,83.80
2018-02-11T04:05:11.274Z,83.90
2018-02-11T04:06:08.640Z,83.90
2018-02-11T04:07:11.093Z,83.90
2018-02-11T04:08:16.135Z,83.90
2018-02-11T04:09:05.671Z,84.00
2018-02-11T04:10:05.657Z,84.00
2018-02-11T04:11:05.683Z,84.10
2018-02-11T04:12:11.267Z,84.30
2018-02-11T04:13:21.386Z,84.30
2018-02-11T04:14:13.538Z,84.60
2018-02-11T04:15:09.110Z,84.60
2018-02-11T04:16:08.132Z,84.70
2018-02-11T04:17:05.635Z,84.70
2018-02-11T04:18:06.338Z,84.80
2018-02-11T04:19:08.820Z,85.00
2018-02-11T04:20:06.378Z,85.00
2018-02-11T04:21:10.558Z,84.90
2018-02-11T04:22:10.785Z,85.00
2018-02-11T04:23:05.935Z,85.00
2018-02-11T04:24:05.681Z,85.00
2018-02-11T04:25:13.383Z,85.10
2018-02-11T04:26:08.615Z,85.10
2018-02-11T04:27:07.089Z,85.10
2018-02-11T04:28:06.230Z,85.10
2018-02-11T04:29:11.103Z,85.10
2018-02-11T04:30:08.896Z,85.00
2018-02-11T04:31:09.302Z,85.00
2018-02-11T04:32:10.763Z,85.00
2018-02-11T04:33:10.964Z,84.90
2018-02-11T04:34:06.462Z,84.90
2018-02-11T04:35:11.216Z,84.90
2018-02-11T04:36:05.859Z,84.80
2018-02-11T04:37:09.069Z,84.80
2018-02-11T04:38:05.537Z,84.80
2018-02-11T04:39:06.103Z,84.80
2018-02-11T04:40:08.930Z,84.80
2018-02-11T04:41:11.612Z,84.80
2018-02-11T04:42:06.375Z,84.80
2018-02-11T04:43:06.059Z,84.80
2018-02-11T04:44:06.216Z,84.70
2018-02-11T04:45:10.888Z,84.60
2018-02-11T04:46:06.124Z,84.70
2018-02-11T04:47:09.576Z,84.60
2018-02-11T04:48:08.987Z,84.60
2018-02-11T04:49:05.709Z,84.60
2018-02-11T04:50:08.367Z,84.50
2018-02-11T04:51:08.290Z,84.50
2018-02-11T04:52:10.756Z,84.40
2018-02-11T04:53:08.513Z,84.40
2018-02-11T04:54:08.619Z,84.40
2018-02-11T04:55:13.700Z,84.40
2018-02-11T04:56:06.368Z,84.40
2018-02-11T04:57:06.389Z,84.40
2018-02-11T04:58:06.366Z,84.40
2018-02-11T04:59:08.462Z,84.20
2018-02-11T05:00:06.004Z,84.30
2018-02-11T05:01:05.739Z,84.20
2018-02-11T05:02:06.136Z,84.20
2018-02-11T05:03:05.475Z,84.10
2018-02-11T05:04:05.883Z,84.10
2018-02-11T05:05:05.951Z,84.00
2018-02-11T05:06:05.755Z,84.00
2018-02-11T05:07:05.904Z,83.90
2018-02-11T05:08:06.122Z,84.10
2018-02-11T05:09:07.295Z,83.90
2018-02-11T05:10:05.786Z,83.90
2018-02-11T05:11:09.737Z,83.80
2018-02-11T05:12:11.200Z,83.90
2018-02-11T05:13:06.360Z,83.80
2018-02-11T05:14:06.366Z,83.80
2018-02-11T05:15:06.983Z,83.80
2018-02-11T05:16:05.564Z,83.50
2018-02-11T05:17:05.937Z,83.40
2018-02-11T05:18:07.509Z,83.10
2018-02-11T05:19:10.695Z,83.00
2018-02-11T05:20:08.548Z,82.90
2018-02-11T05:21:07.044Z,83.10
2018-02-11T05:22:11.135Z,82.90
2018-02-11T05:23:05.625Z,83.00
2018-02-11T05:24:06.151Z,82.90
2018-02-11T05:25:06.361Z,82.90
2018-02-11T05:26:09.168Z,82.90
2018-02-11T05:27:08.194Z,82.90
2018-02-11T05:28:08.685Z,82.80
2018-02-11T05:29:06.217Z,82.80
2018-02-11T05:30:05.774Z,82.80
2018-02-11T05:31:05.802Z,82.90
2018-02-11T05:32:06.402Z,82.90
2018-02-11T05:33:08.172Z,82.70
2018-02-11T05:34:05.711Z,82.80
2018-02-11T05:35:11.495Z,82.80
2018-02-11T05:36:15.955Z,82.70
2018-02-11T05:37:10.297Z,82.60
2018-02-11T05:38:06.233Z,82.70
2018-02-11T05:39:06.276Z,82.60
2018-02-11T05:40:10.867Z,82.60
2018-02-11T05:41:06.355Z,82.60
2018-02-11T05:42:11.339Z,82.50
2018-02-11T05:43:08.432Z,82.40
2018-02-11T05:44:06.046Z,82.40
2018-02-11T05:45:14.106Z,82.20
2018-02-11T05:46:05.635Z,82.20
2018-02-11T05:47:06.573Z,82.20
2018-02-11T05:48:06.146Z,82.20
2018-02-11T05:49:08.247Z,82.20
2018-02-11T05:50:05.634Z,82.20
2018-02-11T05:51:09.044Z,82.20
2018-02-11T05:52:05.600Z,82.20
2018-02-11T05:53:06.546Z,82.20
2018-02-11T05:54:06.393Z,82.20
2018-02-11T05:55:05.897Z,82.20
2018-02-11T05:56:07.270Z,82.20
2018-02-11T05:57:11.910Z,82.20
2018-02-11T05:58:08.829Z,82.10
2018-02-11T05:59:08.728Z,82.00
2018-02-11T06:00:06.296Z,82.00
2018-02-11T06:01:05.564Z,82.00
2018-02-11T06:02:05.676Z,81.90
2018-02-11T06:03:08.273Z,81.80
2018-02-11T06:04:05.705Z,81.80
2018-02-11T06:05:05.918Z,81.80
2018-02-11T06:06:05.996Z,81.80
2018-02-11T06:07:11.226Z,81.70
2018-02-11T06:08:08.458Z,81.50
2018-02-11T06:09:13.537Z,81.30
2018-02-11T06:10:05.966Z,81.30
2018-02-11T06:11:05.534Z,81.20
2018-02-11T06:12:05.510Z,81.00
2018-02-11T06:13:06.432Z,81.00
2018-02-11T06:14:05.909Z,80.90
2018-02-11T06:15:06.056Z,80.90
2018-02-11T06:16:06.073Z,80.70
2018-02-11T06:17:11.091Z,80.50
2018-02-11T06:18:06.004Z,80.50
2018-02-11T06:19:05.574Z,80.40
2018-02-11T06:20:10.763Z,80.40
2018-02-11T06:21:06.304Z,80.40
2018-02-11T06:22:08.295Z,80.40
2018-02-11T06:23:05.775Z,80.40
2018-02-11T06:24:05.933Z,80.20
2018-02-11T06:25:05.900Z,80.20
2018-02-11T06:26:06.142Z,80.20
2018-02-11T06:27:08.571Z,80.20
2018-02-11T06:28:06.240Z,80.20
2018-02-11T06:29:07.974Z,80.10
2018-02-11T06:30:11.525Z,80.00
2018-02-11T06:31:05.904Z,80.00
2018-02-11T06:32:08.873Z,79.90
2018-02-11T06:33:08.817Z,79.90
2018-02-11T06:34:06.418Z,79.90
2018-02-11T06:35:06.086Z,79.90
2018-02-11T06:36:08.244Z,79.90
2018-02-11T06:37:05.900Z,79.90
2018-02-11T06:38:08.893Z,79.90
2018-02-11T06:39:06.061Z,79.90
2018-02-11T06:40:06.501Z,79.80
2018-02-11T06:41:08.718Z,79.90
2018-02-11T06:42:11.275Z,79.90
2018-02-11T06:43:05.609Z,79.80
2018-02-11T06:44:06.005Z,79.80
2018-02-11T06:45:06.214Z,79.80
2018-02-11T06:46:06.230Z,79.70
2018-02-11T06:47:05.485Z,79.70
2018-02-11T06:48:10.607Z,79.60
2018-02-11T06:49:08.303Z,79.50
2018-02-11T06:50:08.217Z,79.50
2018-02-11T06:51:06.303Z,79.50
2018-02-11T06:52:06.566Z,79.50
2018-02-11T06:53:05.980Z,79.50
2018-02-11T06:54:06.186Z,79.40
2018-02-11T06:55:09.221Z,79.20
2018-02-11T06:56:05.738Z,79.30
2018-02-11T06:57:06.092Z,79.20
2018-02-11T06:58:06.590Z,76.90
2018-02-11T06:59:05.697Z,79.40
2018-02-11T07:00:11.387Z,79.50
2018-02-11T07:01:05.926Z,79.40
2018-02-11T07:02:05.928Z,79.30
2018-02-11T07:03:05.532Z,79.30
2018-02-11T07:04:08.280Z,79.20
2018-02-11T07:05:05.947Z,79.20
2018-02-11T07:06:10.834Z,79.40
2018-02-11T07:07:11.417Z,79.40
2018-02-11T07:08:05.880Z,79.30
2018-02-11T07:09:06.140Z,79.20
2018-02-11T07:10:08.168Z,79.20
2018-02-11T07:11:10.626Z,79.20
2018-02-11T07:12:06.028Z,79.20
2018-02-11T07:13:11.116Z,79.10
2018-02-11T07:14:06.336Z,79.20
2018-02-11T07:15:12.345Z,79.10
2018-02-11T07:16:05.938Z,79.10
2018-02-11T07:17:05.742Z,79.10
2018-02-11T07:18:06.393Z,79.00
2018-02-11T07:19:06.528Z,79.00
2018-02-11T07:20:10.861Z,79.00
2018-02-11T07:21:06.581Z,79.00
2018-02-11T07:22:06.248Z,79.00
2018-02-11T07:23:10.860Z,78.90
2018-02-11T07:24:06.366Z,79.00
2018-02-11T07:25:05.474Z,79.00
2018-02-11T07:26:05.540Z,79.00
2018-02-11T07:27:05.674Z,79.00
2018-02-11T07:28:05.948Z,79.10
2018-02-11T07:29:05.889Z,79.20
2018-02-11T07:30:16.596Z,79.40
2018-02-11T07:31:05.873Z,79.20
2018-02-11T07:32:05.830Z,79.20
2018-02-11T07:33:06.438Z,79.20
2018-02-11T07:34:05.990Z,79.30
2018-02-11T07:35:06.621Z,79.20
2018-02-11T07:36:11.601Z,79.20
2018-02-11T07:37:06.147Z,79.20
2018-02-11T07:38:06.437Z,79.20
2018-02-11T07:39:10.799Z,79.20
2018-02-11T07:40:10.683Z,79.20
2018-02-11T07:41:07.315Z,79.10
2018-02-11T07:42:08.731Z,79.20
2018-02-11T07:43:06.470Z,79.20
2018-02-11T07:44:08.762Z,79.20
2018-02-11T07:45:06.631Z,79.20
2018-02-11T07:46:05.953Z,79.30
2018-02-11T07:47:07.439Z,79.40
2018-02-11T07:48:05.892Z,79.40
2018-02-11T07:49:05.615Z,79.40
2018-02-11T07:50:11.087Z,79.30
2018-02-11T07:51:05.460Z,79.20
2018-02-11T07:52:11.224Z,79.30
2018-02-11T07:53:09.377Z,79.20
2018-02-11T07:54:11.247Z,79.00
2018-02-11T07:55:05.790Z,79.10
2018-02-11T07:56:11.192Z,79.10
2018-02-11T07:57:11.240Z,79.10
2018-02-11T07:58:06.685Z,79.10
2018-02-11T07:59:06.211Z,79.00
2018-02-11T08:00:08.971Z,78.70
2018-02-11T08:01:06.350Z,78.80
2018-02-11T08:02:10.602Z,78.80
2018-02-11T08:03:08.660Z,78.90
2018-02-11T08:04:08.934Z,78.80
2018-02-11T08:05:06.547Z,78.80
2018-02-11T08:06:06.093Z,78.70
2018-02-11T08:07:06.077Z,78.60
2018-02-11T08:08:06.107Z,78.60
2018-02-11T08:09:06.189Z,78.60
2018-02-11T08:10:06.477Z,78.50
2018-02-11T08:11:06.481Z,78.30
2018-02-11T08:12:09.323Z,78.30
2018-02-11T08:13:10.786Z,78.00
2018-02-11T08:14:05.944Z,78.00
2018-02-11T08:15:05.637Z,77.50
2018-02-11T08:16:11.279Z,77.30
2018-02-11T08:17:05.745Z,77.30
2018-02-11T08:18:06.271Z,77.40
2018-02-11T08:19:11.360Z,77.00
2018-02-11T08:20:05.527Z,77.00
2018-02-11T08:21:05.602Z,76.80
2018-02-11T08:22:11.160Z,76.50
2018-02-11T08:23:10.619Z,76.10
2018-02-11T08:24:05.948Z,76.00
2018-02-11T08:25:06.104Z,76.10
2018-02-11T08:26:06.699Z,76.20
2018-02-11T08:27:05.943Z,76.20
2018-02-11T08:28:11.332Z,75.80
2018-02-11T08:29:10.705Z,75.70
2018-02-11T08:30:05.903Z,75.70
2018-02-11T08:31:05.736Z,75.40
2018-02-11T08:32:10.577Z,75.20
2018-02-11T08:33:11.080Z,75.00
2018-02-11T08:34:05.887Z,75.00
2018-02-11T08:35:06.485Z,75.00
2018-02-11T08:36:06.155Z,74.90
2018-02-11T08:37:10.797Z,75.00
2018-02-11T08:38:06.320Z,74.40
2018-02-11T08:39:05.874Z,74.40
2018-02-11T08:40:05.555Z,74.70
2018-02-11T08:41:10.706Z,74.90
2018-02-11T08:42:06.190Z,75.00
2018-02-11T08:43:05.593Z,75.00
2018-02-11T08:44:06.162Z,74.80
2018-02-11T08:45:06.359Z,74.90
2018-02-11T08:46:05.796Z,74.80
2018-02-11T08:47:06.340Z,74.60
2018-02-11T08:48:09.070Z,74.40
2018-02-11T08:49:05.697Z,74.50
2018-02-11T08:50:08.919Z,73.50
2018-02-11T08:51:16.582Z,73.50
2018-02-11T08:52:05.948Z,73.50
2018-02-11T08:53:11.156Z,73.40
2018-02-11T08:54:05.763Z,73.30
2018-02-11T08:55:11.077Z,73.50
2018-02-11T08:56:08.180Z,73.60
2018-02-11T08:57:05.625Z,73.60
2018-02-11T08:58:06.231Z,73.50
2018-02-11T08:59:05.967Z,73.20
2018-02-11T09:00:10.590Z,73.30
2018-02-11T09:01:11.116Z,73.30
2018-02-11T09:02:06.628Z,73.30
2018-02-11T09:03:06.610Z,72.80
2018-02-11T09:04:06.246Z,72.50
2018-02-11T09:05:05.655Z,72.50
2018-02-11T09:06:06.360Z,72.60
2018-02-11T09:07:06.210Z,72.70
2018-02-11T09:08:05.562Z,72.60
2018-02-11T09:09:06.328Z,72.10
2018-02-11T09:10:05.699Z,71.90
2018-02-11T09:11:06.593Z,71.60
2018-02-11T09:12:06.104Z,71.80
2018-02-11T09:13:06.156Z,71.60
2018-02-11T09:14:10.520Z,71.90
2018-02-11T09:15:06.223Z,71.80
2018-02-11T09:16:06.884Z,71.60
2018-02-11T09:17:08.516Z,71.50
2018-02-11T09:18:11.021Z,71.50
2018-02-11T09:19:05.672Z,71.30
2018-02-11T09:20:05.965Z,71.40
2018-02-11T09:21:08.076Z,71.50
2018-02-11T09:22:08.112Z,20.40
2018-02-11T09:23:06.087Z,71.60
2018-02-11T09:24:06.280Z,71.60
2018-02-11T09:25:06.477Z,71.60
2018-02-11T09:26:06.124Z,71.50
2018-02-11T09:27:06.594Z,71.70
2018-02-11T09:28:05.916Z,71.70
2018-02-11T09:29:13.874Z,71.50
2018-02-11T09:30:06.571Z,71.40
2018-02-11T09:31:06.188Z,71.30
2018-02-11T09:32:11.325Z,71.00
2018-02-11T09:33:05.903Z,71.00
2018-02-11T09:34:06.034Z,70.70
2018-02-11T09:35:10.728Z,70.20
2018-02-11T09:36:06.229Z,70.10
2018-02-11T09:37:09.203Z,69.60
2018-02-11T09:38:05.797Z,69.40
2018-02-11T09:39:08.666Z,69.50
2018-02-11T09:40:07.307Z,69.50
2018-02-11T09:41:06.120Z,69.40
2018-02-11T09:42:05.752Z,69.30
2018-02-11T09:43:05.557Z,69.40
2018-02-11T09:44:06.140Z,69.40
2018-02-11T09:45:05.733Z,69.40
2018-02-11T09:46:06.287Z,69.60
2018-02-11T09:47:08.533Z,69.80
2018-02-11T09:48:06.081Z,69.80
2018-02-11T09:49:17.124Z,70.30
2018-02-11T09:50:05.634Z,70.30
2018-02-11T09:51:06.102Z,70.70
2018-02-11T09:52:05.720Z,71.00
2018-02-11T09:53:08.902Z,71.30
2018-02-11T09:54:11.415Z,71.40
2018-02-11T09:55:07.039Z,71.30
2018-02-11T09:56:05.960Z,71.20
2018-02-11T09:57:05.503Z,71.30
2018-02-11T09:58:05.957Z,71.40
2018-02-11T09:59:09.952Z,72.10
2018-02-11T10:00:06.193Z,72.10
2018-02-11T10:01:10.810Z,72.10
2018-02-11T10:02:11.307Z,72.10
2018-02-11T10:03:07.047Z,71.90
2018-02-11T10:04:10.837Z,71.80
2018-02-11T10:05:11.436Z,71.90
2018-02-11T10:06:08.758Z,71.90
2018-02-11T10:07:11.472Z,72.10
2018-02-11T10:08:06.003Z,72.10
2018-02-11T10:09:08.899Z,72.40
2018-02-11T10:10:08.901Z,72.50
2018-02-11T10:11:06.435Z,72.50
2018-02-11T10:12:11.100Z,72.20
2018-02-11T10:13:06.015Z,72.20
2018-02-11T10:14:12.372Z,72.20
2018-02-11T10:15:11.016Z,72.00
2018-02-11T10:16:05.730Z,72.00
2018-02-11T10:17:06.671Z,72.00
2018-02-11T10:18:09.116Z,71.80
2018-02-11T10:19:05.610Z,71.80
2018-02-11T10:20:06.316Z,72.10
2018-02-11T10:21:06.004Z,72.30
2018-02-11T10:22:06.129Z,72.10
2018-02-11T10:23:10.745Z,72.20
2018-02-11T10:24:06.233Z,72.20
2018-02-11T10:25:10.980Z,72.00
2018-02-11T10:26:05.916Z,71.80
2018-02-11T10:27:11.322Z,71.90
2018-02-11T10:28:13.311Z,72.20
2018-02-11T10:29:05.798Z,72.10
2018-02-11T10:30:05.509Z,71.80
2018-02-11T10:31:06.510Z,71.40
2018-02-11T10:32:11.508Z,70.50
2018-02-11T10:33:06.310Z,70.50
2018-02-11T10:34:05.888Z,70.70
2018-02-11T10:35:05.915Z,70.70
2018-02-11T10:36:06.732Z,70.70
2018-02-11T10:37:11.061Z,70.50
2018-02-11T10:38:05.901Z,70.50
2018-02-11T10:39:06.442Z,70.50
2018-02-11T10:40:06.402Z,70.50
2018-02-11T10:41:05.760Z,70.50
2018-02-11T10:42:09.116Z,69.80
2018-02-11T10:43:05.706Z,69.80
2018-02-11T10:44:05.915Z,70.00
2018-02-11T10:45:06.596Z,70.00
2018-02-11T10:46:11.020Z,69.40
2018-02-11T10:47:09.296Z,69.00
2018-02-11T10:48:05.812Z,69.10
2018-02-11T10:49:10.966Z,69.30
2018-02-11T10:50:06.649Z,69.80
2018-02-11T10:51:06.466Z,69.60
2018-02-11T10:52:11.193Z,69.10
2018-02-11T10:53:05.993Z,69.40
2018-02-11T10:54:11.648Z,70.00
2018-02-11T10:55:08.615Z,70.10
2018-02-11T10:56:06.399Z,70.10
2018-02-11T10:57:08.561Z,69.80
2018-02-11T10:58:06.182Z,69.80
2018-02-11T10:59:08.911Z,69.80
2018-02-11T11:00:14.126Z,70.10
2018-02-11T11:01:09.136Z,70.30
2018-02-11T11:02:10.640Z,70.20
2018-02-11T11:03:06.112Z,70.50
2018-02-11T11:04:09.280Z,70.40
2018-02-11T11:05:10.934Z,70.40
2018-02-11T11:06:06.733Z,70.50
2018-02-11T11:07:06.339Z,70.70
2018-02-11T11:08:05.560Z,70.80
2018-02-11T11:09:11.051Z,70.70
2018-02-11T11:10:06.841Z,70.70
2018-02-11T11:11:06.738Z,70.80
2018-02-11T11:12:06.044Z,70.90
2018-02-11T11:13:11.220Z,71.20
2018-02-11T11:14:05.837Z,71.20
2018-02-11T11:15:13.813Z,71.40
2018-02-11T11:16:11.355Z,71.50
2018-02-11T11:17:10.908Z,71.60
2018-02-11T11:18:06.054Z,71.70
2018-02-11T11:19:06.445Z,71.70
2018-02-11T11:20:10.971Z,71.80
2018-02-11T11:21:11.402Z,71.70
2018-02-11T11:22:05.749Z,71.60
2018-02-11T11:23:06.214Z,71.80
2018-02-11T11:24:05.781Z,71.70
2018-02-11T11:25:08.947Z,71.20
2018-02-11T11:26:06.556Z,71.20
2018-02-11T11:27:08.394Z,71.50
2018-02-11T11:28:10.988Z,71.70
2018-02-11T11:29:06.361Z,71.80
2018-02-11T11:30:06.422Z,71.90
2018-02-11T11:31:08.873Z,72.20
2018-02-11T11:32:08.987Z,72.30
2018-02-11T11:33:06.732Z,72.20
2018-02-11T11:34:05.616Z,72.40
2018-02-11T11:35:05.687Z,72.40
2018-02-11T11:36:11.327Z,72.70
2018-02-11T11:37:10.664Z,72.40
2018-02-11T11:38:11.166Z,72.40
2018-02-11T11:39:10.562Z,72.00
2018-02-11T11:40:05.740Z,71.80
2018-02-11T11:41:10.770Z,71.50
2018-02-11T11:42:06.095Z,71.60
2018-02-11T11:43:06.372Z,71.70
2018-02-11T11:44:08.281Z,71.30
2018-02-11T11:45:06.338Z,71.30
2018-02-11T11:46:08.483Z,71.50
2018-02-11T11:47:05.518Z,71.50
2018-02-11T11:48:06.200Z,71.70
2018-02-11T11:49:06.312Z,71.70
2018-02-11T11:50:06.245Z,71.80
2018-02-11T11:51:06.009Z,71.80
2018-02-11T11:52:06.275Z,72.00
2018-02-11T11:53:09.800Z,71.70
2018-02-11T11:54:08.945Z,71.90
2018-02-11T11:55:06.419Z,71.90
2018-02-11T11:56:05.505Z,72.10
2018-02-11T11:57:05.705Z,72.00
2018-02-11T11:58:08.833Z,71.40
2018-02-11T11:59:08.906Z,71.50
2018-02-11T12:00:06.176Z,71.50
2018-02-11T12:01:05.997Z,71.30
2018-02-11T12:02:06.337Z,71.30
2018-02-11T12:03:05.686Z,71.70
2018-02-11T12:04:11.274Z,71.80
2018-02-11T12:05:05.685Z,71.80
2018-02-11T12:06:08.502Z,71.80
2018-02-11T12:07:10.624Z,71.80
2018-02-11T12:08:06.270Z,71.80
2018-02-11T12:09:06.558Z,72.20
2018-02-11T12:10:08.851Z,72.50
2018-02-11T12:11:07.377Z,72.50
2018-02-11T12:12:05.646Z,72.50
2018-02-11T12:13:06.138Z,72.60
2018-02-11T12:14:11.325Z,72.50
2018-02-11T12:15:08.313Z,72.70
2018-02-11T12:16:06.630Z,72.70
2018-02-11T12:17:05.946Z,72.70
2018-02-11T12:18:10.869Z,73.00
2018-02-11T12:19:09.664Z,73.20
2018-02-11T12:20:08.613Z,73.00
2018-02-11T12:21:06.229Z,73.00
2018-02-11T12:22:08.268Z,72.70
2018-02-11T12:23:05.484Z,72.70
2018-02-11T12:24:10.926Z,72.20
2018-02-11T12:25:06.258Z,72.20
2018-02-11T12:26:09.108Z,72.10
2018-02-11T12:27:05.589Z,72.20
2018-02-11T12:28:05.917Z,72.50
2018-02-11T12:29:09.133Z,72.10
2018-02-11T12:30:13.264Z,72.10
2018-02-11T12:31:08.273Z,72.00
2018-02-11T12:32:05.569Z,72.00
2018-02-11T12:33:06.039Z,72.20
2018-02-11T12:34:05.583Z,72.20
2018-02-11T12:35:05.842Z,72.20
2018-02-11T12:36:11.225Z,72.30
2018-02-11T12:37:05.755Z,72.30
2018-02-11T12:38:09.227Z,72.60
2018-02-11T12:39:05.718Z,72.60
2018-02-11T12:40:05.694Z,72.70
2018-02-11T12:41:06.287Z,72.80
2018-02-11T12:42:05.572Z,72.90
2018-02-11T12:43:10.935Z,73.20
2018-02-11T12:44:05.678Z,73.20
2018-02-11T12:45:05.927Z,73.00
2018-02-11T12:46:06.119Z,73.10
2018-02-11T12:47:05.756Z,73.20
2018-02-11T12:48:06.193Z,73.30
2018-02-11T12:49:05.951Z,73.50
2018-02-11T12:50:06.493Z,73.60
2018-02-11T12:51:11.308Z,73.40
2018-02-11T12:52:06.063Z,73.50